Time;durP1;ratioP1;P1;durP2;ratioP2;P2;SDS_P1;SDS_P2;PMS_P1;PMS_P2;Temp;Humidity;BMP_temperature;BMP_pressure;BME280_temperature;BME280_humidity;BME280_pressure;Samples;Min_cycle;Max_cycle;Signal;HPM_P1;HPM_P2
2021/06/01 00:00:06;;;;;;;16.00;15.10;;;14.80;56.40;;;;;;5050930;28;20450;-68
2021/06/01 00:02:32;;;;;;;16.00;15.20;;;14.80;56.10;;;;;;5050913;28;20505;-69
2021/06/01 00:04:58;;;;;;;15.70;14.90;;;14.80;55.60;;;;;;5050877;28;20852;-68
2021/06/01 00:07:25;;;;;;;15.57;14.90;;;14.80;55.60;;;;;;5050693;28;20802;-68
2021/06/01 00:09:51;;;;;;;14.60;14.10;;;14.80;55.70;;;;;;5050846;28;20452;-69
2021/06/01 00:12:19;;;;;;;15.97;15.27;;;14.80;55.70;;;;;;5050900;28;20956;-68
2021/06/01 00:14:45;;;;;;;15.80;15.10;;;14.80;55.70;;;;;;5050910;28;20444;-68
2021/06/01 00:17:11;;;;;;;16.00;15.30;;;14.70;55.90;;;;;;5074897;23;20457;-66
2021/06/01 00:19:37;;;;;;;15.60;15.00;;;14.70;55.90;;;;;;5050986;28;20463;-66
2021/06/01 00:22:04;;;;;;;15.50;14.90;;;14.60;56.10;;;;;;5031129;28;20448;-65
2021/06/01 00:24:30;;;;;;;15.00;14.40;;;14.60;56.30;;;;;;5031097;28;20955;-66
2021/06/01 00:26:56;;;;;;;15.33;14.73;;;14.60;56.80;;;;;;5030787;28;20449;-66
2021/06/01 00:29:24;;;;;;;15.87;15.17;;;14.50;57.40;;;;;;5031186;28;20515;-66
2021/06/01 00:31:50;;;;;;;15.30;14.80;;;14.50;57.50;;;;;;5031172;28;20522;-66
2021/06/01 00:34:16;;;;;;;15.10;14.60;;;14.50;57.10;;;;;;5031043;28;20970;-66
2021/06/01 00:36:42;;;;;;;16.13;14.63;;;14.50;57.20;;;;;;5030913;28;20448;-66
2021/06/01 00:39:09;;;;;;;15.10;14.40;;;14.50;58.20;;;;;;5033911;28;20468;-65
2021/06/01 00:41:35;;;;;;;14.90;14.40;;;14.50;59.20;;;;;;5034865;28;20499;-66
2021/06/01 00:44:02;;;;;;;15.00;14.50;;;14.60;58.50;;;;;;5034727;28;20444;-66
2021/06/01 00:46:29;;;;;;;15.20;14.60;;;14.60;57.60;;;;;;5034494;28;20476;-66
2021/06/01 00:48:56;;;;;;;15.20;14.50;;;14.70;56.20;;;;;;5034456;28;20471;-65
2021/06/01 00:51:22;;;;;;;16.27;15.57;;;14.80;56.20;;;;;;5034699;28;20460;-66
2021/06/01 00:53:48;;;;;;;15.20;14.60;;;14.90;55.70;;;;;;5034505;28;20445;-66
2021/06/01 00:56:14;;;;;;;15.33;14.63;;;14.90;55.20;;;;;;5034280;28;20449;-66
2021/06/01 00:58:41;;;;;;;15.27;14.70;;;14.90;55.30;;;;;;5034434;28;20832;-66
2021/06/01 01:03:54;;;;;;;15.20;14.70;;;14.80;57.30;;;;;;5034183;28;20440;-66
2021/06/01 01:06:42;;;;;;;15.37;14.70;;;14.70;57.60;;;;;;5034107;28;20491;-66
2021/06/01 01:09:11;;;;;;;15.10;14.50;;;14.60;56.10;;;;;;5034223;28;21003;-66
2021/06/01 01:11:42;;;;;;;15.17;14.57;;;14.60;55.70;;;;;;5034187;28;20448;-65
2021/06/01 01:14:12;;;;;;;15.77;15.17;;;14.50;55.40;;;;;;5034213;28;20439;-65
2021/06/01 01:16:44;;;;;;;15.13;14.57;;;14.50;55.90;;;;;;5033903;28;20448;-66
2021/06/01 01:19:15;;;;;;;15.70;15.10;;;14.40;56.10;;;;;;5034001;28;20477;-65
2021/06/01 01:21:48;;;;;;;15.23;14.37;;;14.40;56.90;;;;;;5034111;28;20452;-66
2021/06/01 01:24:26;;;;;;;15.00;14.40;;;14.30;57.20;;;;;;5033908;28;20448;-66
2021/06/01 01:27:01;;;;;;;15.10;14.60;;;14.30;57.40;;;;;;5033745;28;20449;-66
2021/06/01 01:29:37;;;;;;;15.30;14.70;;;14.30;57.30;;;;;;5033996;28;20467;-66
2021/06/01 01:32:06;;;;;;;15.33;14.73;;;14.30;57.00;;;;;;5034016;28;20441;-66
2021/06/01 01:34:34;;;;;;;15.40;14.70;;;14.30;56.90;;;;;;5033854;28;20453;-65
2021/06/01 01:37:02;;;;;;;15.17;14.60;;;14.20;57.10;;;;;;5033378;28;20449;-66
2021/06/01 01:39:32;;;;;;;14.77;14.20;;;14.20;57.10;;;;;;5033713;28;20452;-66
2021/06/01 01:41:59;;;;;;;15.27;14.60;;;14.10;56.90;;;;;;5033710;28;20468;-65
2021/06/01 01:44:26;;;;;;;14.93;14.43;;;14.10;56.70;;;;;;5033496;28;20507;-65
2021/06/01 01:47:05;;;;;;;15.43;14.83;;;14.10;56.80;;;;;;5033368;28;20452;-65
2021/06/01 01:49:31;;;;;;;14.67;14.03;;;14.10;57.00;;;;;;5033193;28;20449;-65
2021/06/01 01:52:01;;;;;;;15.57;14.77;;;14.00;57.00;;;;;;5033406;28;20533;-66
2021/06/01 01:54:30;;;;;;;15.23;14.53;;;13.90;57.30;;;;;;5033508;28;20202;-66
2021/06/01 01:57:07;;;;;;;14.60;14.00;;;13.90;57.50;;;;;;5033206;28;20508;-66
2021/06/01 01:59:34;;;;;;;14.80;14.27;;;13.80;57.90;;;;;;5033487;28;20448;-65
2021/06/01 02:02:01;;;;;;;15.17;14.57;;;13.70;58.50;;;;;;5033215;28;20445;-66
2021/06/01 02:04:29;;;;;;;14.53;13.90;;;13.70;59.70;;;;;;5033204;28;20448;-66
2021/06/01 02:06:58;;;;;;;15.00;14.50;;;13.70;61.80;;;;;;5032868;28;20449;-65
2021/06/01 02:09:26;;;;;;;15.67;15.07;;;13.60;62.00;;;;;;5033144;28;20843;-66
2021/06/01 02:11:52;;;;;;;15.00;14.40;;;13.50;61.60;;;;;;5033113;28;20457;-66
2021/06/01 02:14:20;;;;;;;15.20;14.60;;;13.50;62.80;;;;;;5033182;28;20445;-66
2021/06/01 02:16:47;;;;;;;15.00;14.40;;;13.50;63.40;;;;;;5032979;28;20444;-66
2021/06/01 02:19:16;;;;;;;14.57;13.97;;;13.40;63.80;;;;;;5032761;28;20485;-66
2021/06/01 02:22:01;;;;;;;14.70;14.10;;;13.40;64.10;;;;;;5032981;28;20453;-66
2021/06/01 02:24:32;;;;;;;15.33;14.57;;;13.30;64.50;;;;;;5032836;28;20449;-66
2021/06/01 02:27:06;;;;;;;15.27;14.67;;;13.30;64.70;;;;;;5032633;28;20447;-65
2021/06/01 02:29:38;;;;;;;15.10;14.50;;;13.30;64.70;;;;;;5032745;28;20935;-66
2021/06/01 02:32:06;;;;;;;15.13;14.53;;;13.30;65.00;;;;;;5032671;28;20963;-66
2021/06/01 02:34:37;;;;;;;15.20;14.70;;;13.30;66.40;;;;;;5032659;28;20452;-66
2021/06/01 02:37:04;;;;;;;14.93;14.33;;;13.30;67.30;;;;;;5032358;28;20452;-66
2021/06/01 02:39:32;;;;;;;15.40;14.73;;;13.20;69.80;;;;;;5032623;28;20452;-66
2021/06/01 02:41:59;;;;;;;14.60;14.10;;;13.10;70.90;;;;;;5032591;28;20445;-66
2021/06/01 02:44:25;;;;;;;14.87;14.37;;;13.00;72.80;;;;;;5032341;28;20453;-66
2021/06/01 02:46:52;;;;;;;15.00;14.50;;;13.00;77.40;;;;;;5032287;28;20453;-66
2021/06/01 02:49:19;;;;;;;15.00;14.47;;;12.90;79.50;;;;;;5032420;28;20445;-66
2021/06/01 02:51:46;;;;;;;14.80;14.20;;;12.80;79.40;;;;;;5032309;28;20441;-66
2021/06/01 02:54:12;;;;;;;15.53;14.83;;;12.80;82.30;;;;;;5032504;28;20441;-66
2021/06/01 02:56:40;;;;;;;15.37;14.63;;;12.70;83.10;;;;;;5032207;28;20794;-66
2021/06/01 02:59:07;;;;;;;15.53;14.93;;;12.70;85.90;;;;;;5032166;28;20470;-66
2021/06/01 03:01:34;;;;;;;15.60;15.00;;;12.60;88.20;;;;;;5031400;28;20452;-66
2021/06/01 03:04:01;;;;;;;16.60;15.93;;;12.60;89.60;;;;;;5032022;28;20546;-66
2021/06/01 03:06:28;;;;;;;16.77;15.77;;;12.50;90.30;;;;;;5031984;28;20480;-66
2021/06/01 03:08:55;;;;;;;16.57;15.53;;;12.50;92.40;;;;;;5032020;28;20461;-67
2021/06/01 03:11:22;;;;;;;16.60;15.90;;;12.50;95.40;;;;;;5032101;28;20445;-66
2021/06/01 03:13:52;;;;;;;17.57;16.33;;;12.50;96.80;;;;;;5032093;28;20591;-66
2021/06/01 03:16:19;;;;;;;16.70;16.00;;;12.40;97.20;;;;;;5031609;28;20437;-66
2021/06/01 03:18:45;;;;;;;14.90;14.30;;;12.40;97.80;;;;;;5031832;28;20481;-66
2021/06/01 03:21:13;;;;;;;17.03;15.90;;;12.40;98.90;;;;;;5031920;28;20445;-66
2021/06/01 03:23:40;;;;;;;17.17;16.37;;;12.40;99.40;;;;;;5031841;28;20449;-66
2021/06/01 03:26:06;;;;;;;15.80;15.20;;;12.40;99.50;;;;;;5031667;28;20512;-66
2021/06/01 03:28:32;;;;;;;16.77;15.77;;;12.40;98.70;;;;;;5031584;28;20472;-65
2021/06/01 03:31:01;;;;;;;16.43;15.63;;;12.40;98.60;;;;;;5031716;28;20448;-66
2021/06/01 03:33:28;;;;;;;17.33;16.53;;;12.40;99.50;;;;;;5031588;28;20449;-66
2021/06/01 03:35:54;;;;;;;15.87;15.27;;;12.40;99.10;;;;;;5031641;28;20448;-66
2021/06/01 03:38:21;;;;;;;15.43;14.93;;;12.40;98.40;;;;;;5031423;28;20492;-65
2021/06/01 03:40:47;;;;;;;15.50;14.90;;;12.40;98.10;;;;;;5031527;28;20448;-66
2021/06/01 03:43:13;;;;;;;17.07;15.70;;;12.40;97.90;;;;;;5031472;28;21029;-66
2021/06/01 03:45:39;;;;;;;16.30;15.50;;;12.50;97.90;;;;;;5031343;28;20480;-66
2021/06/01 03:48:07;;;;;;;16.70;15.90;;;12.50;97.60;;;;;;5031283;28;20461;-66
2021/06/01 03:50:34;;;;;;;18.63;17.27;;;12.50;97.80;;;;;;5031345;28;20445;-67
2021/06/01 03:53:00;;;;;;;15.60;15.00;;;12.50;97.80;;;;;;5031448;28;20538;-67
2021/06/01 03:55:27;;;;;;;15.93;15.30;;;12.60;98.00;;;;;;5031438;28;20503;-67
2021/06/01 03:57:53;;;;;;;16.43;15.73;;;12.60;98.30;;;;;;5031101;28;20465;-66
2021/06/01 04:00:22;;;;;;;16.53;15.53;;;12.70;97.90;;;;;;5031441;28;20472;-66
2021/06/01 04:02:48;;;;;;;16.63;15.87;;;12.70;98.20;;;;;;5031405;28;20445;-66
2021/06/01 04:05:16;;;;;;;16.67;15.87;;;12.70;98.10;;;;;;5031173;28;21046;-66
2021/06/01 04:07:44;;;;;;;16.33;15.63;;;12.80;97.80;;;;;;5031057;28;21050;-66
2021/06/01 04:10:11;;;;;;;16.90;16.00;;;12.90;97.80;;;;;;5031319;28;20441;-66
2021/06/01 04:12:37;;;;;;;15.93;15.23;;;12.90;97.50;;;;;;5033630;28;20452;-66
2021/06/01 04:15:05;;;;;;;15.73;15.13;;;13.00;97.40;;;;;;5035331;28;20440;-66
2021/06/01 04:17:31;;;;;;;16.20;15.60;;;13.10;96.90;;;;;;5034940;28;20476;-67
2021/06/01 04:19:57;;;;;;;16.33;15.63;;;13.20;97.00;;;;;;5035202;28;20442;-67
2021/06/01 04:22:25;;;;;;;16.13;15.50;;;13.20;96.90;;;;;;5035080;28;20441;-66
2021/06/01 04:24:51;;;;;;;16.90;16.20;;;13.30;97.20;;;;;;5035204;28;20452;-66
2021/06/01 04:27:17;;;;;;;18.93;17.60;;;13.30;97.10;;;;;;5034668;28;20825;-65
2021/06/01 04:29:43;;;;;;;16.80;16.10;;;13.40;97.20;;;;;;5035095;28;20440;-66
2021/06/01 04:32:10;;;;;;;17.90;16.90;;;13.40;97.30;;;;;;5034989;28;20491;-66
2021/06/01 04:34:36;;;;;;;18.07;16.93;;;13.40;97.30;;;;;;5034833;28;20441;-65
2021/06/01 04:37:03;;;;;;;16.83;15.83;;;13.50;97.30;;;;;;5034604;28;20503;-65
2021/06/01 04:39:30;;;;;;;17.37;16.57;;;13.60;96.90;;;;;;5034798;28;20948;-65
2021/06/01 04:41:57;;;;;;;17.40;16.60;;;13.70;97.00;;;;;;5034799;28;20444;-65
2021/06/01 04:44:23;;;;;;;17.10;16.40;;;13.70;96.80;;;;;;5034789;28;20451;-65
2021/06/01 04:46:50;;;;;;;18.10;17.20;;;13.80;96.50;;;;;;5034538;28;20477;-65
2021/06/01 04:49:16;;;;;;;17.27;16.37;;;13.90;96.60;;;;;;5034438;28;20472;-65
2021/06/01 04:51:42;;;;;;;17.10;16.30;;;14.00;96.80;;;;;;5034460;28;20941;-65
2021/06/01 04:54:09;;;;;;;17.00;16.30;;;14.10;96.50;;;;;;5034647;28;20449;-65
2021/06/01 04:56:36;;;;;;;18.13;17.07;;;14.10;96.10;;;;;;5034383;28;20819;-65
2021/06/01 04:59:02;;;;;;;16.93;16.13;;;14.30;95.60;;;;;;5034447;28;20469;-65
2021/06/01 05:01:29;;;;;;;17.23;16.43;;;14.30;95.30;;;;;;5034434;28;20449;-67
2021/06/01 05:03:55;;;;;;;16.50;15.87;;;14.40;95.00;;;;;;5034376;28;20815;-66
2021/06/01 05:06:21;;;;;;;16.20;15.60;;;14.50;94.70;;;;;;5034021;28;20488;-66
2021/06/01 05:08:48;;;;;;;17.03;16.13;;;14.60;94.70;;;;;;5034265;28;20523;-66
2021/06/01 05:11:15;;;;;;;16.90;16.20;;;14.70;94.20;;;;;;5034304;28;20523;-66
2021/06/01 05:13:42;;;;;;;16.70;16.00;;;14.80;93.30;;;;;;5034152;28;20533;-66
2021/06/01 05:16:08;;;;;;;17.67;16.80;;;14.90;93.00;;;;;;5034228;28;20445;-66
2021/06/01 05:18:35;;;;;;;18.63;17.63;;;14.90;92.90;;;;;;5033724;28;20988;-65
2021/06/01 05:21:01;;;;;;;17.30;16.40;;;15.00;92.80;;;;;;5033951;28;20449;-65
2021/06/01 05:23:27;;;;;;;17.70;16.80;;;15.20;92.60;;;;;;5033161;28;20761;-65
2021/06/01 05:25:55;;;;;;;17.47;16.37;;;15.20;91.60;;;;;;5033992;28;20481;-65
2021/06/01 05:28:21;;;;;;;17.03;16.33;;;15.30;91.70;;;;;;5033509;28;20464;-65
2021/06/01 05:30:58;;;;;;;17.93;17.13;;;15.40;91.40;;;;;;5033930;28;20445;-65
2021/06/01 05:33:26;;;;;;;17.07;16.30;;;15.50;91.50;;;;;;5033905;28;20811;-65
2021/06/01 05:35:53;;;;;;;18.80;18.00;;;15.60;91.00;;;;;;5033782;28;20453;-65
2021/06/01 05:38:20;;;;;;;17.90;17.10;;;15.70;91.20;;;;;;5033458;28;20465;-65
2021/06/01 05:40:46;;;;;;;17.17;16.47;;;15.70;89.80;;;;;;5033504;28;20952;-65
2021/06/01 05:43:12;;;;;;;18.17;17.27;;;15.80;88.60;;;;;;5033564;28;20451;-66
2021/06/01 05:45:38;;;;;;;18.77;17.97;;;16.00;88.10;;;;;;5033537;28;20472;-66
2021/06/01 05:48:08;;;;;;;18.67;17.90;;;16.10;88.70;;;;;;5033255;28;20481;-66
2021/06/01 05:50:35;;;;;;;18.33;17.53;;;16.10;86.80;;;;;;5033477;28;20449;-66
2021/06/01 05:53:02;;;;;;;17.80;17.00;;;16.20;85.60;;;;;;5033528;28;20445;-66
2021/06/01 05:55:29;;;;;;;18.40;17.50;;;16.30;85.30;;;;;;5033366;28;20449;-65
2021/06/01 05:57:55;;;;;;;18.10;17.30;;;16.40;83.80;;;;;;5033209;28;20472;-65
2021/06/01 06:00:23;;;;;;;17.90;17.20;;;16.50;81.50;;;;;;5033425;28;20445;-65
2021/06/01 06:02:49;;;;;;;18.00;17.30;;;16.50;81.80;;;;;;5033280;28;20809;-65
2021/06/01 06:05:17;;;;;;;17.97;17.17;;;16.60;81.50;;;;;;5033128;28;20485;-65
2021/06/01 06:07:43;;;;;;;17.50;16.70;;;16.70;81.10;;;;;;5032893;28;20468;-65
2021/06/01 06:10:11;;;;;;;17.50;16.60;;;16.90;81.30;;;;;;5033004;28;20468;-65
2021/06/01 06:12:37;;;;;;;17.90;17.10;;;16.90;80.50;;;;;;5033110;28;20441;-66
2021/06/01 06:15:07;;;;;;;17.10;16.40;;;17.00;79.00;;;;;;5033328;28;20503;-65
2021/06/01 06:17:43;;;;;;;16.77;16.07;;;17.10;78.50;;;;;;5033173;28;20511;-65
2021/06/01 06:20:11;;;;;;;18.00;17.00;;;17.20;78.00;;;;;;5032980;28;20441;-65
2021/06/01 06:22:39;;;;;;;17.80;17.10;;;17.20;75.60;;;;;;5032713;28;20445;-65
2021/06/01 06:25:07;;;;;;;17.23;16.53;;;17.30;75.40;;;;;;5032719;28;20440;-66
2021/06/01 06:27:33;;;;;;;17.87;17.00;;;17.40;76.00;;;;;;5032491;28;20547;-66
2021/06/01 06:30:00;;;;;;;17.80;17.10;;;17.50;74.20;;;;;;5032695;28;20839;-66
2021/06/01 06:32:26;;;;;;;19.00;18.20;;;17.60;71.70;;;;;;5032620;28;20789;-65
2021/06/01 06:34:54;;;;;;;18.23;17.53;;;17.60;70.70;;;;;;5032731;28;20453;-65
2021/06/01 06:37:21;;;;;;;17.53;16.87;;;17.60;69.80;;;;;;5032357;28;20826;-65
2021/06/01 06:39:48;;;;;;;17.87;16.87;;;17.70;68.80;;;;;;5032599;28;20485;-66
2021/06/01 06:42:17;;;;;;;17.60;16.90;;;17.80;68.30;;;;;;5032459;28;20507;-66
2021/06/01 06:44:44;;;;;;;16.90;16.20;;;17.90;69.10;;;;;;5032217;28;20936;-65
2021/06/01 06:47:21;;;;;;;18.33;17.33;;;18.00;69.60;;;;;;5032051;28;20564;-65
2021/06/01 06:49:47;;;;;;;17.97;16.97;;;18.10;68.40;;;;;;5032278;28;20539;-66
2021/06/01 06:52:14;;;;;;;17.30;16.70;;;18.20;67.60;;;;;;5032306;28;20511;-66
2021/06/01 06:54:41;;;;;;;17.77;17.10;;;18.30;66.00;;;;;;5032222;28;20519;-67
2021/06/01 06:57:09;;;;;;;18.10;17.40;;;18.40;64.30;;;;;;5032064;28;20464;-66
2021/06/01 06:59:35;;;;;;;18.43;17.53;;;18.50;64.40;;;;;;5032088;28;20441;-65
2021/06/01 07:02:02;;;;;;;18.87;17.90;;;18.60;64.30;;;;;;5032063;28;20445;-65
2021/06/01 07:04:29;;;;;;;18.40;17.50;;;18.70;64.40;;;;;;5032142;28;20476;-66
2021/06/01 07:06:56;;;;;;;17.90;17.20;;;18.70;61.60;;;;;;5031828;28;20865;-66
2021/06/01 07:09:22;;;;;;;17.60;16.90;;;18.80;63.00;;;;;;5032121;28;20587;-65
2021/06/01 07:11:48;;;;;;;18.17;17.40;;;18.90;62.60;;;;;;5032106;28;20448;-65
2021/06/01 07:14:38;;;;;;;17.93;17.23;;;19.00;61.60;;;;;;5032021;28;20453;-65
2021/06/01 07:17:04;;;;;;;17.23;16.43;;;19.10;63.00;;;;;;5031345;28;20448;-65
2021/06/01 07:19:30;;;;;;;18.20;17.30;;;19.20;63.60;;;;;;5031971;28;20810;-66
2021/06/01 07:21:57;;;;;;;18.67;17.90;;;19.30;64.50;;;;;;5031741;28;20445;-66
2021/06/01 07:24:23;;;;;;;18.00;17.30;;;19.50;63.00;;;;;;5031744;28;20469;-65
2021/06/01 07:26:49;;;;;;;18.70;17.70;;;19.50;62.60;;;;;;5031493;28;20481;-66
2021/06/01 07:29:15;;;;;;;18.37;17.57;;;19.60;61.90;;;;;;5031657;28;20461;-66
2021/06/01 07:31:44;;;;;;;18.70;18.00;;;19.60;60.80;;;;;;5031535;28;20982;-65
2021/06/01 07:34:10;;;;;;;18.40;17.60;;;19.70;60.30;;;;;;5031859;28;20449;-65
2021/06/01 07:36:37;;;;;;;18.27;17.47;;;19.80;60.90;;;;;;5031367;28;20947;-66
2021/06/01 07:39:03;;;;;;;18.60;17.50;;;19.90;60.90;;;;;;5031689;28;20472;-66
2021/06/01 07:41:29;;;;;;;18.83;18.00;;;20.00;60.30;;;;;;5031757;28;20487;-65
2021/06/01 07:44:01;;;;;;;18.30;17.50;;;20.00;59.20;;;;;;5031390;28;20790;-66
2021/06/01 07:46:27;;;;;;;17.97;17.30;;;20.10;59.10;;;;;;5030985;28;20484;-66
2021/06/01 07:48:55;;;;;;;17.80;17.10;;;20.20;58.00;;;;;;5031164;28;20480;-65
2021/06/01 07:51:28;;;;;;;19.17;18.37;;;20.20;58.10;;;;;;5031497;28;20994;-65
2021/06/01 07:53:54;;;;;;;18.53;17.50;;;20.30;57.80;;;;;;5031523;28;20546;-65
2021/06/01 07:56:20;;;;;;;17.83;17.13;;;20.40;56.90;;;;;;5031316;28;20445;-65
2021/06/01 07:58:47;;;;;;;18.07;17.40;;;20.50;56.70;;;;;;5030875;28;20468;-66
2021/06/01 08:01:14;;;;;;;18.50;17.77;;;20.60;57.10;;;;;;5031136;28;20951;-66
2021/06/01 08:03:40;;;;;;;18.70;18.00;;;20.70;56.50;;;;;;5031298;28;20441;-65
2021/06/01 08:06:08;;;;;;;18.80;17.90;;;20.80;56.20;;;;;;5031228;28;20477;-66
2021/06/01 08:08:35;;;;;;;18.67;17.97;;;21.00;56.50;;;;;;5030928;28;20465;-65
2021/06/01 08:11:01;;;;;;;18.43;17.63;;;21.10;55.80;;;;;;5031213;28;20445;-65
2021/06/01 08:13:27;;;;;;;18.47;17.77;;;21.10;54.40;;;;;;5031112;28;20450;-66
2021/06/01 08:15:54;;;;;;;18.30;17.60;;;21.20;55.40;;;;;;5031068;28;20502;-66
2021/06/01 08:18:22;;;;;;;18.53;17.63;;;21.30;55.80;;;;;;5030794;28;21000;-67
2021/06/01 08:20:56;;;;;;;18.50;17.70;;;21.50;55.00;;;;;;5031202;28;20452;-66
2021/06/01 08:23:25;;;;;;;18.20;17.50;;;21.60;53.90;;;;;;5030938;28;20815;-66
2021/06/01 08:25:52;;;;;;;18.43;17.77;;;21.70;54.20;;;;;;5030980;28;20492;-65
2021/06/01 08:28:18;;;;;;;18.00;17.40;;;21.80;53.90;;;;;;5030664;28;20461;-65
2021/06/01 08:30:44;;;;;;;18.53;17.60;;;21.90;53.70;;;;;;5030963;28;20519;-65
2021/06/01 08:33:11;;;;;;;18.13;17.33;;;22.00;53.00;;;;;;5031027;28;20498;-65
2021/06/01 08:35:37;;;;;;;18.10;17.40;;;22.10;53.50;;;;;;5030910;28;20441;-65
2021/06/01 08:38:03;;;;;;;19.07;18.37;;;22.20;52.90;;;;;;5030884;28;20548;-65
2021/06/01 08:40:31;;;;;;;18.53;17.73;;;22.30;51.70;;;;;;5031020;28;20441;-63
2021/06/01 08:42:57;;;;;;;19.00;18.20;;;22.40;50.50;;;;;;5030823;28;20448;-65
2021/06/01 08:45:24;;;;;;;19.07;18.27;;;22.50;51.00;;;;;;5030662;28;20476;-65
2021/06/01 08:47:50;;;;;;;18.20;17.40;;;22.60;49.00;;;;;;5030595;28;20518;-65
2021/06/01 08:50:18;;;;;;;18.90;18.00;;;22.70;49.40;;;;;;5030777;28;20808;-65
2021/06/01 08:52:45;;;;;;;17.67;16.97;;;22.70;47.30;;;;;;5030898;28;20532;-66
2021/06/01 08:55:13;;;;;;;18.33;17.53;;;22.80;46.40;;;;;;5030803;28;20440;-63
2021/06/01 08:57:41;;;;;;;18.67;17.87;;;22.80;46.00;;;;;;5030556;28;20464;-65
2021/06/01 09:00:10;;;;;;;18.40;17.53;;;22.90;46.10;;;;;;5033640;28;20444;-64
2021/06/01 09:02:36;;;;;;;18.80;17.93;;;23.00;45.80;;;;;;5034311;28;20467;-63
2021/06/01 09:05:05;;;;;;;18.33;17.73;;;23.20;45.00;;;;;;5034369;28;20453;-64
2021/06/01 09:07:37;;;;;;;18.17;17.47;;;23.30;45.30;;;;;;5034134;28;20476;-64
2021/06/01 09:10:24;;;;;;;19.47;18.13;;;23.40;43.40;;;;;;5034461;28;20836;-64
2021/06/01 09:13:33;;;;;;;17.60;17.00;;;23.60;45.10;;;;;;5034539;28;20544;-63
2021/06/01 09:21:39;;;;;;;18.50;17.57;;;23.90;41.40;;;;;;5034119;28;20475;-64
2021/06/01 09:24:06;;;;;;;17.97;17.37;;;23.90;41.30;;;;;;5034065;28;20536;-63
2021/06/01 09:26:42;;;;;;;18.20;17.40;;;24.00;40.60;;;;;;5034009;28;20897;-63
2021/06/01 09:29:09;;;;;;;18.03;17.33;;;24.10;41.30;;;;;;5034072;28;20468;-65
2021/06/01 09:31:36;;;;;;;19.10;18.37;;;24.20;40.20;;;;;;5034038;28;20524;-63
2021/06/01 09:34:02;;;;;;;18.13;17.33;;;24.10;39.60;;;;;;5033774;28;20448;-62
2021/06/01 09:36:28;;;;;;;18.73;17.93;;;24.20;41.10;;;;;;5033757;28;20445;-63
2021/06/01 09:38:55;;;;;;;19.47;18.67;;;24.20;40.60;;;;;;5033497;28;20461;-66
2021/06/01 09:41:27;;;;;;;18.80;18.10;;;24.10;40.70;;;;;;5033723;28;20944;-63
2021/06/01 09:43:55;;;;;;;18.20;17.50;;;24.30;40.40;;;;;;5033733;28;20445;-64
2021/06/01 09:46:24;;;;;;;19.00;18.10;;;24.30;39.10;;;;;;5033495;28;20819;-63
2021/06/01 09:48:52;;;;;;;19.20;18.03;;;24.50;40.10;;;;;;5033255;28;20548;-64
2021/06/01 09:51:28;;;;;;;19.23;18.27;;;24.60;40.20;;;;;;5033568;28;20941;-64
2021/06/01 09:53:56;;;;;;;18.40;17.53;;;24.60;39.40;;;;;;5033469;28;20441;-64
2021/06/01 09:56:23;;;;;;;17.60;17.00;;;24.60;40.20;;;;;;5033296;28;20481;-64
2021/06/01 09:58:50;;;;;;;17.50;16.90;;;24.70;38.50;;;;;;5033139;28;20461;-65
2021/06/01 10:01:17;;;;;;;18.23;17.53;;;24.70;37.80;;;;;;5033478;28;20444;-64
2021/06/01 10:03:48;;;;;;;18.10;17.43;;;24.70;38.50;;;;;;5033292;28;20503;-64
2021/06/01 10:06:15;;;;;;;17.80;17.10;;;24.80;38.70;;;;;;5033189;28;20558;-64
2021/06/01 10:08:45;;;;;;;18.77;18.17;;;24.80;38.20;;;;;;5032810;28;20878;-64
2021/06/01 10:11:13;;;;;;;18.03;17.33;;;25.00;37.80;;;;;;5032558;28;20456;-65
2021/06/01 10:13:40;;;;;;;17.80;17.20;;;25.10;36.50;;;;;;5032988;28;20453;-64
2021/06/01 10:16:08;;;;;;;18.63;17.73;;;25.10;36.90;;;;;;5033119;28;20437;-64
2021/06/01 10:18:36;;;;;;;18.00;17.40;;;25.20;37.60;;;;;;5032558;28;20542;-64
2021/06/01 10:21:05;;;;;;;18.40;17.80;;;25.30;37.10;;;;;;5032861;28;20449;-64
2021/06/01 10:23:33;;;;;;;18.60;17.90;;;25.40;35.60;;;;;;5032939;28;20441;-64
2021/06/01 10:26:01;;;;;;;19.27;18.60;;;25.50;35.60;;;;;;5032726;28;20476;-64
2021/06/01 10:28:31;;;;;;;18.90;18.10;;;25.50;37.00;;;;;;5032484;28;20591;-64
2021/06/01 10:30:58;;;;;;;18.90;18.10;;;25.70;35.20;;;;;;5032556;28;20453;-64
2021/06/01 10:33:27;;;;;;;18.93;18.23;;;25.80;34.60;;;;;;5032672;28;20456;-63
2021/06/01 10:36:05;;;;;;;18.40;17.80;;;25.80;35.50;;;;;;5032585;28;20925;-64
2021/06/01 10:44:42;;;;;;;19.07;18.37;;;26.40;35.10;;;;;;5032660;28;20451;-64
2021/06/01 10:50:27;;;;;;;19.20;18.50;;;27.30;34.70;;;;;;5032370;28;20588;-63
2021/06/01 10:53:15;;;;;;;18.70;18.10;;;27.50;34.10;;;;;;5032128;28;21025;-63
2021/06/01 10:56:02;;;;;;;18.90;18.20;;;27.80;33.00;;;;;;5032153;28;20441;-63
2021/06/01 10:58:46;;;;;;;19.87;18.80;;;27.60;32.20;;;;;;5031913;28;20464;-63
2021/06/01 11:04:09;;;;;;;19.00;18.30;;;27.40;32.90;;;;;;5032147;28;20497;-63
2021/06/01 11:07:24;;;;;;;19.37;18.60;;;27.20;34.10;;;;;;5031931;28;21012;-64
2021/06/01 11:09:50;;;;;;;19.67;18.67;;;27.60;33.00;;;;;;5031960;28;20948;-63
2021/06/01 11:12:44;;;;;;;20.73;19.93;;;27.80;33.30;;;;;;5031931;28;20454;-63
2021/06/01 11:15:37;;;;;;;19.93;19.23;;;27.90;33.20;;;;;;5031988;28;21009;-63
2021/06/01 11:18:34;;;;;;;20.23;19.53;;;28.20;32.60;;;;;;5031737;28;20534;-63
2021/06/01 11:21:16;;;;;;;21.33;20.43;;;28.90;31.70;;;;;;5031450;28;20456;-63
2021/06/01 11:35:53;;;;;;;21.13;20.33;;;34.00;27.30;;;;;;5031785;28;20197;-64
2021/06/01 11:38:22;;;;;;;20.92;20.23;;;35.70;26.50;;;;;;5031339;28;20226;-64
2021/06/01 11:43:32;;;;;;;20.88;20.17;;;39.10;23.60;;;;;;5028183;28;20198;-64
2021/06/01 11:51:31;;;;;;;21.50;20.63;;;43.10;20.40;;;;;;5031591;28;20251;-64
2021/06/01 11:53:59;;;;;;;20.80;20.10;;;45.40;19.50;;;;;;5031536;28;20598;-64
2021/06/01 11:56:57;;;;;;;20.73;19.92;;;47.00;18.10;;;;;;5031351;28;20225;-64
2021/06/01 12:05:27;;;;;;;20.98;20.17;;;49.60;15.50;;;;;;4995345;28;20299;-65
2021/06/01 12:19:06;;;;;;;21.05;20.30;;;52.20;14.50;;;;;;5031473;28;20220;-64
2021/06/01 12:21:35;;;;;;;21.52;20.65;;;53.00;14.00;;;;;;5031219;28;20209;-64
2021/06/01 12:24:04;;;;;;;21.08;20.38;;;53.70;13.50;;;;;;5030950;28;20205;-64
2021/06/01 12:26:39;;;;;;;21.02;20.33;;;53.60;13.20;;;;;;5031176;28;20644;-64
2021/06/01 12:31:56;;;;;;;20.48;19.88;;;54.80;13.50;;;;;;5031030;28;20240;-64
2021/06/01 12:34:31;;;;;;;21.15;20.35;;;55.70;13.20;;;;;;5034464;28;20204;-64
2021/06/01 12:37:25;;;;;;;20.83;20.00;;;55.40;12.80;;;;;;5034581;28;20256;-65
2021/06/01 12:42:59;;;;;;;21.17;20.48;;;56.70;12.90;;;;;;5034831;28;20201;-64
2021/06/01 12:45:39;;;;;;;22.00;21.20;;;57.40;12.30;;;;;;5034679;28;20202;-65
2021/06/01 13:21:42;;;;;;;21.42;20.73;;;57.70;11.80;;;;;;5034104;28;20568;-65
2021/06/01 13:24:29;;;;;;;22.20;21.50;;;58.60;11.90;;;;;;5034022;28;20206;-65
2021/06/01 13:38:39;;;;;;;21.70;20.98;;;60.50;11.20;;;;;;5023415;28;20222;-65
2021/06/01 13:46:40;;;;;;;21.75;21.05;;;60.90;11.10;;;;;;5033591;28;20233;-65
2021/06/01 13:49:14;;;;;;;20.85;20.15;;;60.50;11.20;;;;;;5033383;28;20314;-64
2021/06/01 13:51:52;;;;;;;21.98;21.27;;;61.40;11.10;;;;;;5033411;28;20586;-64
2021/06/01 13:57:13;;;;;;;21.90;21.10;;;60.90;11.10;;;;;;5033397;28;20199;-64
2021/06/01 13:59:49;;;;;;;21.38;20.58;;;58.60;10.90;;;;;;5033548;28;20205;-64
2021/06/01 14:21:48;;;;;;;21.52;20.75;;;61.10;11.10;;;;;;5033035;28;20201;-62
2021/06/01 14:29:51;;;;;;;16.02;15.52;;;61.20;11.10;;;;;;5032071;28;20428;-64
2021/06/01 14:38:05;;;;;;;16.15;15.65;;;59.00;11.00;;;;;;5031610;28;20774;-63
2021/06/01 15:11:35;;;;;;;20.35;19.75;;;62.20;10.70;;;;;;5032097;28;20204;-64
2021/06/01 15:23:01;;;;;;;20.05;19.45;;;59.70;10.50;;;;;;5031773;28;20209;-64
2021/06/01 15:50:16;;;;;;;21.17;20.23;;;58.30;11.80;;;;;;5032743;28;20271;-64
2021/06/01 16:21:38;;;;;;;19.73;18.50;;;39.80;19.30;;;;;;4978702;28;20433;-70
2021/06/01 16:29:58;;;;;;;20.77;19.87;;;34.00;24.00;;;;;;5023080;28;20494;-66
2021/06/01 16:32:54;;;;;;;21.30;20.50;;;32.70;25.10;;;;;;5022815;28;20456;-67
2021/06/01 16:43:48;;;;;;;20.60;19.70;;;29.90;27.80;;;;;;5022801;28;21007;-67
2021/06/01 17:05:36;;;;;;;17.30;16.40;;;29.20;29.30;;;;;;5021709;28;20455;-63
2021/06/01 17:11:02;;;;;;;18.43;17.83;;;29.00;29.60;;;;;;5022353;28;20543;-62
2021/06/01 17:13:34;;;;;;;18.43;17.73;;;28.60;29.80;;;;;;5022294;28;20459;-63
2021/06/01 17:16:02;;;;;;;18.33;17.63;;;28.50;29.80;;;;;;5021945;28;20873;-62